Time;durP1;ratioP1;P1;durP2;ratioP2;P2;SDS_P1;SDS_P2;PMS_P1;PMS_P2;Temp;Humidity;BMP_temperature;BMP_pressure;BME280_temperature;BME280_humidity;BME280_pressure;Samples;Min_cycle;Max_cycle;Signal;HPM_P1;HPM_P2
2021/09/05 02:45:38;;;;;;;16.25;11.35;;;14.40;94.90;;;;;;5742848;23;20128;-84
2021/09/05 02:48:29;;;;;;;17.85;11.45;;;14.40;94.90;;;;;;4863125;29;20283;-83
2021/09/05 02:51:13;;;;;;;15.52;12.00;;;14.30;95.10;;;;;;4854654;29;20045;-84
2021/09/05 02:53:59;;;;;;;17.17;10.93;;;14.30;95.50;;;;;;4842095;29;20045;-84
2021/09/05 02:56:45;;;;;;;16.20;11.47;;;14.30;95.20;;;;;;4799040;30;20031;-83
2021/09/05 02:59:46;;;;;;;16.10;10.85;;;14.30;95.40;;;;;;4799445;30;20456;-83
2021/09/05 03:02:36;;;;;;;17.30;11.95;;;14.30;95.30;;;;;;4799277;29;20419;-83
2021/09/05 03:05:32;;;;;;;21.10;12.15;;;14.30;95.30;;;;;;4745566;30;20037;-83
2021/09/05 03:08:33;;;;;;;15.82;11.07;;;14.20;95.30;;;;;;4738541;30;20041;-83
2021/09/05 03:11:15;;;;;;;17.95;10.93;;;14.20;95.40;;;;;;4728320;30;20456;-83
2021/09/05 03:14:04;;;;;;;19.90;11.05;;;14.20;95.40;;;;;;4740155;30;20045;-84
2021/09/05 03:16:48;;;;;;;18.52;11.10;;;14.20;95.30;;;;;;4727938;30;20082;-83
2021/09/05 03:19:31;;;;;;;18.13;11.35;;;14.10;95.20;;;;;;4727837;30;20041;-83
2021/09/05 03:22:36;;;;;;;18.67;10.70;;;14.10;95.40;;;;;;4693357;30;20066;-83
2021/09/05 03:25:35;;;;;;;18.55;11.60;;;14.10;95.50;;;;;;4689597;30;20286;-83
2021/09/05 03:28:33;;;;;;;16.02;11.10;;;14.10;95.40;;;;;;4702832;30;20353;-83
2021/09/05 03:31:16;;;;;;;16.17;11.32;;;14.00;95.60;;;;;;4691165;30;20372;-83
2021/09/05 03:34:02;;;;;;;16.35;11.00;;;14.00;95.70;;;;;;4685832;30;20073;-83
2021/09/05 03:36:28;;;;;;;15.80;12.52;;;14.00;95.60;;;;;;4692990;30;20053;-83
2021/09/05 03:39:12;;;;;;;20.88;11.18;;;14.00;95.90;;;;;;4693216;30;20052;-83
2021/09/05 03:41:59;;;;;;;16.13;10.82;;;14.00;95.70;;;;;;4692731;30;20077;-83
2021/09/05 03:44:44;;;;;;;16.25;10.82;;;14.00;95.60;;;;;;4681151;30;20387;-83
2021/09/05 03:47:32;;;;;;;19.05;10.70;;;13.90;95.60;;;;;;4643242;30;20046;-83
2021/09/05 03:50:36;;;;;;;18.55;10.63;;;13.90;95.50;;;;;;4675779;30;20046;-83
2021/09/05 03:53:03;;;;;;;14.27;9.93;;;13.90;95.50;;;;;;4668053;30;20046;-83
2021/09/05 03:55:31;;;;;;;15.27;10.90;;;13.90;95.60;;;;;;4692697;30;20117;-83
2021/09/05 03:57:58;;;;;;;16.70;10.73;;;13.80;95.60;;;;;;4692700;30;20113;-83
2021/09/05 04:00:25;;;;;;;17.90;11.18;;;13.80;95.70;;;;;;4693079;30;20122;-83
2021/09/05 04:02:52;;;;;;;16.92;10.63;;;13.80;95.70;;;;;;4692686;30;20038;-83
2021/09/05 04:05:19;;;;;;;16.00;10.88;;;13.80;95.70;;;;;;4692830;30;20037;-83
2021/09/05 04:08:00;;;;;;;17.98;11.25;;;13.80;95.70;;;;;;4678314;30;20393;-83
2021/09/05 04:10:29;;;;;;;15.27;10.93;;;13.80;95.70;;;;;;4700655;30;20088;-83
2021/09/05 04:12:56;;;;;;;13.65;9.95;;;13.70;95.50;;;;;;4727428;30;20037;-83
2021/09/05 04:15:23;;;;;;;17.77;10.50;;;13.80;95.60;;;;;;4712828;30;20084;-83
2021/09/05 04:17:49;;;;;;;17.92;12.00;;;13.70;95.70;;;;;;4697762;30;20063;-82
2021/09/05 04:20:14;;;;;;;20.38;11.57;;;13.70;95.70;;;;;;4713488;30;20067;-83
2021/09/05 04:22:40;;;;;;;15.35;10.27;;;13.70;95.70;;;;;;4715381;30;20040;-83
2021/09/05 04:25:07;;;;;;;17.40;12.05;;;13.70;95.80;;;;;;4796092;29;20045;-83
2021/09/05 04:27:33;;;;;;;20.20;12.93;;;13.70;95.90;;;;;;4838034;29;20030;-83
2021/09/05 04:29:58;;;;;;;17.10;11.93;;;13.70;96.10;;;;;;4822464;29;20074;-83
2021/09/05 04:32:25;;;;;;;17.10;12.07;;;13.70;96.10;;;;;;4838061;29;20037;-83
2021/09/05 04:34:51;;;;;;;19.17;11.73;;;13.70;96.10;;;;;;4837902;29;20061;-83
2021/09/05 04:37:18;;;;;;;17.55;11.65;;;13.80;96.10;;;;;;4822526;29;20041;-83
2021/09/05 04:39:44;;;;;;;17.15;12.05;;;13.80;96.00;;;;;;4822231;29;20097;-82
2021/09/05 04:42:10;;;;;;;18.25;12.50;;;13.80;96.30;;;;;;4837982;29;20061;-83
2021/09/05 04:44:38;;;;;;;24.77;12.85;;;13.90;96.20;;;;;;4837784;29;20030;-83
2021/09/05 04:47:04;;;;;;;19.92;12.88;;;13.90;96.30;;;;;;4831844;29;20042;-83
2021/09/05 04:49:30;;;;;;;18.95;10.90;;;13.90;96.30;;;;;;4837834;29;20041;-83
2021/09/05 04:51:56;;;;;;;18.58;11.93;;;13.90;96.30;;;;;;4837686;29;20030;-83
2021/09/05 04:54:22;;;;;;;17.13;11.52;;;14.00;96.40;;;;;;4837634;29;20078;-82
2021/09/05 04:56:48;;;;;;;18.77;11.77;;;14.10;96.40;;;;;;4852972;29;20074;-82
2021/09/05 04:59:13;;;;;;;19.88;12.23;;;14.20;96.50;;;;;;4852908;29;20030;-82
2021/09/05 05:01:39;;;;;;;28.48;13.45;;;14.30;96.30;;;;;;4852608;29;20033;-82
2021/09/05 05:04:05;;;;;;;23.40;14.27;;;14.40;96.60;;;;;;4852738;29;20037;-82
2021/09/05 05:06:31;;;;;;;23.65;13.77;;;14.40;96.30;;;;;;4837607;29;20084;-83
2021/09/05 05:08:57;;;;;;;18.98;11.80;;;14.50;96.40;;;;;;4837341;29;20041;-83
2021/09/05 05:11:23;;;;;;;19.95;12.75;;;14.50;96.60;;;;;;4837382;29;20034;-83
2021/09/05 05:13:51;;;;;;;20.42;12.48;;;14.60;96.30;;;;;;4837391;29;20040;-83
2021/09/05 05:16:17;;;;;;;19.58;12.73;;;14.70;96.40;;;;;;4853518;29;20371;-83
2021/09/05 05:18:43;;;;;;;16.63;11.90;;;14.80;96.50;;;;;;4852942;29;20034;-83
2021/09/05 05:21:09;;;;;;;14.27;10.48;;;14.90;96.80;;;;;;4837857;29;20105;-83
2021/09/05 05:23:36;;;;;;;15.80;10.63;;;15.00;96.90;;;;;;4838347;29;20033;-83
2021/09/05 05:26:02;;;;;;;19.20;11.82;;;15.10;96.70;;;;;;4837726;29;20040;-83
2021/09/05 05:28:27;;;;;;;14.55;10.82;;;15.20;96.90;;;;;;4853130;29;20026;-83
2021/09/05 05:30:54;;;;;;;17.73;9.70;;;15.40;97.00;;;;;;4837836;29;20329;-83
2021/09/05 05:33:19;;;;;;;15.80;10.32;;;15.50;96.80;;;;;;4852892;29;20086;-83
2021/09/05 05:35:45;;;;;;;19.30;10.20;;;15.70;96.30;;;;;;4842405;29;20062;-83
2021/09/05 05:38:11;;;;;;;22.08;11.55;;;15.80;96.20;;;;;;4819488;29;20233;-83
2021/09/05 05:40:37;;;;;;;16.55;11.30;;;15.90;96.20;;;;;;4840034;29;20286;-83
2021/09/05 05:43:03;;;;;;;16.00;9.98;;;16.00;96.50;;;;;;4837320;29;20352;-83
2021/09/05 05:45:29;;;;;;;18.27;9.73;;;16.10;96.40;;;;;;4849790;29;20033;-83
2021/09/05 05:47:55;;;;;;;16.57;10.03;;;16.30;96.10;;;;;;4836670;29;20038;-83
2021/09/05 05:50:22;;;;;;;12.88;9.43;;;16.40;95.90;;;;;;4840546;29;20034;-83
2021/09/05 05:52:47;;;;;;;21.47;10.40;;;16.50;95.90;;;;;;4862379;29;20089;-83
2021/09/05 05:55:13;;;;;;;16.88;9.90;;;16.60;95.80;;;;;;4825521;29;20033;-82
2021/09/05 05:57:39;;;;;;;19.92;10.82;;;16.70;95.40;;;;;;4841293;29;20052;-82
2021/09/05 06:00:06;;;;;;;17.00;9.85;;;16.80;95.20;;;;;;4859001;29;20056;-82
2021/09/05 06:02:38;;;;;;;19.42;11.07;;;16.90;95.00;;;;;;4860032;29;20087;-82
2021/09/05 06:05:05;;;;;;;15.88;10.15;;;17.00;94.60;;;;;;4875270;29;20037;-82
2021/09/05 06:07:31;;;;;;;15.13;9.52;;;17.10;94.40;;;;;;4858868;29;20017;-82
2021/09/05 06:09:57;;;;;;;14.00;9.27;;;17.20;94.20;;;;;;4842916;29;20117;-82
2021/09/05 06:12:22;;;;;;;16.88;11.45;;;17.30;94.00;;;;;;4845471;29;20336;-83
2021/09/05 06:14:48;;;;;;;18.02;11.15;;;17.40;93.90;;;;;;4825105;29;20033;-82
2021/09/05 06:17:14;;;;;;;18.40;10.73;;;17.40;93.70;;;;;;4839912;29;20038;-82
2021/09/05 06:19:40;;;;;;;16.42;10.15;;;17.50;93.50;;;;;;4844913;29;20024;-83
2021/09/05 06:22:06;;;;;;;16.63;10.93;;;17.60;93.30;;;;;;4838667;29;20025;-82
2021/09/05 06:24:32;;;;;;;18.85;11.15;;;17.70;93.10;;;;;;4851466;29;20032;-82
2021/09/05 06:26:57;;;;;;;18.52;12.25;;;17.80;93.00;;;;;;4871687;29;20021;-83
2021/09/05 06:29:23;;;;;;;22.38;12.50;;;17.90;92.60;;;;;;4854402;29;20029;-83
2021/09/05 06:31:49;;;;;;;16.45;11.75;;;18.00;92.40;;;;;;4824517;29;20078;-82
2021/09/05 06:34:15;;;;;;;20.60;12.75;;;18.00;92.30;;;;;;4821140;29;20054;-82
2021/09/05 06:36:41;;;;;;;21.50;11.75;;;18.10;92.30;;;;;;4837608;29;20022;-82
2021/09/05 06:39:07;;;;;;;17.05;12.40;;;18.20;92.20;;;;;;4846977;29;20309;-79
2021/09/05 06:41:33;;;;;;;23.25;14.63;;;18.30;91.90;;;;;;4826300;29;20042;-78
2021/09/05 06:43:58;;;;;;;24.77;15.25;;;18.40;91.60;;;;;;4838420;29;20293;-80
2021/09/05 06:46:25;;;;;;;21.33;14.60;;;18.40;91.10;;;;;;4829849;29;20050;-81
2021/09/05 06:48:50;;;;;;;23.98;14.02;;;18.50;91.20;;;;;;4872138;29;20060;-80
2021/09/05 06:51:20;;;;;;;20.70;14.48;;;18.50;91.00;;;;;;4852778;29;20037;-80
2021/09/05 06:53:46;;;;;;;26.38;14.82;;;18.60;90.70;;;;;;4871988;29;20124;-80
2021/09/05 06:56:14;;;;;;;22.52;14.45;;;18.80;90.50;;;;;;4851705;29;20034;-82
2021/09/05 06:58:39;;;;;;;22.92;14.85;;;18.80;90.40;;;;;;4839939;29;20045;-82
2021/09/05 07:01:05;;;;;;;21.88;15.18;;;19.00;90.00;;;;;;4868372;29;20042;-81
2021/09/05 07:03:31;;;;;;;21.48;15.63;;;19.10;89.50;;;;;;4837713;29;20078;-82
2021/09/05 07:05:57;;;;;;;22.63;15.20;;;19.20;88.50;;;;;;4865109;29;20033;-81
2021/09/05 07:08:23;;;;;;;21.88;14.50;;;19.30;88.20;;;;;;4857260;29;20158;-81
2021/09/05 07:10:48;;;;;;;20.60;15.20;;;19.40;88.40;;;;;;4856157;29;20061;-82
2021/09/05 07:13:14;;;;;;;22.77;15.48;;;19.50;87.30;;;;;;4838277;29;20084;-81
2021/09/05 07:15:40;;;;;;;29.33;14.88;;;19.50;87.10;;;;;;4841809;29;20210;-81
2021/09/05 07:18:06;;;;;;;21.10;14.50;;;19.60;87.40;;;;;;4863905;29;20101;-81
2021/09/05 07:20:32;;;;;;;20.65;14.77;;;19.60;86.80;;;;;;4869294;29;20065;-82
2021/09/05 07:22:58;;;;;;;25.90;15.23;;;19.80;87.30;;;;;;4856460;29;20824;-81
2021/09/05 07:25:26;;;;;;;21.40;14.52;;;19.90;86.10;;;;;;4847677;29;20394;-81
2021/09/05 07:27:53;;;;;;;21.52;14.45;;;20.00;84.80;;;;;;4838323;29;20033;-81
2021/09/05 07:30:19;;;;;;;26.02;14.93;;;20.20;84.80;;;;;;4831042;29;20077;-81
2021/09/05 07:32:45;;;;;;;24.98;14.90;;;20.30;84.70;;;;;;4866594;29;20037;-81
2021/09/05 07:35:11;;;;;;;21.75;14.63;;;20.50;83.40;;;;;;4868409;29;20034;-81
2021/09/05 07:37:37;;;;;;;23.20;14.02;;;20.60;81.60;;;;;;4837468;29;20041;-82
2021/09/05 07:40:05;;;;;;;20.67;13.57;;;20.80;81.30;;;;;;4828115;29;20038;-80
2021/09/05 07:42:31;;;;;;;22.95;15.00;;;21.00;80.80;;;;;;4864028;29;20048;-80
2021/09/05 07:44:58;;;;;;;21.35;14.65;;;21.10;81.00;;;;;;4837437;29;20225;-80
2021/09/05 07:47:24;;;;;;;;;;;21.20;81.50;;;;;;4838112;29;20038;-80
2021/09/05 07:49:50;;;;;;;16.10;12.97;;;21.40;80.40;;;;;;4854203;29;19909;-80
2021/09/05 07:52:16;;;;;;;19.10;13.43;;;21.50;78.70;;;;;;4837907;29;20233;-80
2021/09/05 07:54:41;;;;;;;19.15;13.52;;;21.60;79.30;;;;;;4838299;29;20040;-80
2021/09/05 07:57:07;;;;;;;22.88;13.02;;;21.70;80.60;;;;;;4852887;29;20026;-80
2021/09/05 07:59:33;;;;;;;22.27;13.38;;;22.00;79.00;;;;;;4837606;29;20029;-80
2021/09/05 08:01:58;;;;;;;18.58;13.93;;;22.10;74.50;;;;;;4837511;29;20299;-80
2021/09/05 08:04:24;;;;;;;22.50;13.07;;;22.30;77.10;;;;;;4837709;29;20470;-80
2021/09/05 08:06:50;;;;;;;21.17;13.27;;;22.50;75.80;;;;;;4837324;29;20034;-80
2021/09/05 08:09:16;;;;;;;18.77;12.90;;;22.60;75.90;;;;;;4837572;29;20323;-80
2021/09/05 08:11:41;;;;;;;17.40;12.05;;;22.50;74.30;;;;;;4837585;29;20041;-80
2021/09/05 08:14:07;;;;;;;19.17;13.00;;;22.60;75.40;;;;;;4837183;29;20330;-80
2021/09/05 08:16:36;;;;;;;16.88;12.68;;;22.80;74.00;;;;;;4853573;29;20037;-80
2021/09/05 08:19:02;;;;;;;16.40;11.75;;;23.00;74.40;;;;;;4852428;29;20336;-80
2021/09/05 08:21:27;;;;;;;16.95;12.65;;;23.20;73.10;;;;;;4852478;29;20114;-80
2021/09/05 08:23:53;;;;;;;21.00;12.88;;;23.30;71.90;;;;;;4837253;29;20236;-79
2021/09/05 08:26:20;;;;;;;20.17;13.23;;;23.30;69.90;;;;;;4852296;29;20041;-80
2021/09/05 08:28:46;;;;;;;16.17;12.40;;;23.30;69.40;;;;;;4836791;29;20026;-77
2021/09/05 08:31:12;;;;;;;18.23;12.32;;;23.30;69.90;;;;;;4852065;29;20038;-77
2021/09/05 08:33:38;;;;;;;18.92;13.50;;;23.40;68.90;;;;;;4851768;29;20041;-77
2021/09/05 08:36:05;;;;;;;16.42;12.20;;;23.60;69.70;;;;;;4853075;29;20038;-77
2021/09/05 08:38:31;;;;;;;20.98;13.27;;;23.70;69.50;;;;;;4852882;29;20237;-77
2021/09/05 08:40:57;;;;;;;19.07;11.60;;;23.90;70.90;;;;;;4836513;29;20105;-77
2021/09/05 08:43:23;;;;;;;16.77;11.70;;;24.00;68.50;;;;;;4852876;29;20232;-77
2021/09/05 08:45:49;;;;;;;17.45;11.90;;;24.20;67.20;;;;;;4852560;29;20052;-77
2021/09/05 08:48:19;;;;;;;17.08;11.30;;;24.20;67.10;;;;;;4836642;29;20036;-77
2021/09/05 08:50:47;;;;;;;15.75;12.13;;;24.10;66.50;;;;;;4821159;29;20038;-77
2021/09/05 08:53:15;;;;;;;17.40;11.75;;;24.00;66.90;;;;;;4837081;29;20313;-78
2021/09/05 08:55:42;;;;;;;22.48;12.75;;;24.10;66.60;;;;;;4821842;29;20034;-79
2021/09/05 08:58:08;;;;;;;22.38;12.55;;;24.20;67.80;;;;;;4821835;29;20048;-78
2021/09/05 09:00:35;;;;;;;18.48;11.90;;;24.30;66.10;;;;;;4821681;29;20404;-79
2021/09/05 09:03:01;;;;;;;18.95;12.23;;;24.30;67.20;;;;;;4821537;29;20329;-79
2021/09/05 09:05:40;;;;;;;19.20;12.40;;;24.30;65.30;;;;;;4836885;29;20041;-79
2021/09/05 09:08:09;;;;;;;19.10;11.90;;;24.40;66.90;;;;;;4853119;29;20048;-79
2021/09/05 09:10:45;;;;;;;16.65;11.95;;;24.60;66.60;;;;;;4821576;29;20441;-78
2021/09/05 09:13:36;;;;;;;16.55;11.98;;;24.80;66.40;;;;;;4852998;29;20030;-79
2021/09/05 09:16:11;;;;;;;21.02;12.23;;;24.70;63.50;;;;;;4836906;29;20034;-78
2021/09/05 09:18:39;;;;;;;16.48;11.38;;;24.80;63.70;;;;;;4836146;29;20089;-79
2021/09/05 09:21:07;;;;;;;19.45;13.60;;;24.80;64.90;;;;;;4836658;29;20038;-80
2021/09/05 09:23:36;;;;;;;19.73;11.77;;;25.00;65.80;;;;;;4821438;29;20101;-80
2021/09/05 09:26:03;;;;;;;22.42;12.48;;;25.20;63.60;;;;;;4823307;29;20039;-80
2021/09/05 09:28:44;;;;;;;20.05;12.60;;;25.40;62.20;;;;;;4824955;29;20030;-80
2021/09/05 09:31:23;;;;;;;16.55;11.60;;;25.30;61.20;;;;;;4824793;29;20113;-80
2021/09/05 09:33:50;;;;;;;17.77;12.63;;;25.20;64.80;;;;;;4839232;29;20380;-79
2021/09/05 09:36:17;;;;;;;;;;;25.30;62.20;;;;;;4840097;29;20336;-79
2021/09/05 09:38:59;;;;;;;19.65;11.85;;;25.50;62.00;;;;;;4839795;29;19904;-79
2021/09/05 09:41:30;;;;;;;34.47;24.25;;;25.40;61.60;;;;;;4839349;29;20352;-78
2021/09/05 09:44:01;;;;;;;30.35;22.30;;;25.50;63.10;;;;;;4838884;29;20033;-79
2021/09/05 09:46:29;;;;;;;18.88;12.07;;;25.60;61.40;;;;;;4823568;29;20053;-79
2021/09/05 09:49:07;;;;;;;16.77;10.93;;;25.70;60.40;;;;;;4855514;29;20022;-79
2021/09/05 09:51:33;;;;;;;16.38;11.25;;;25.80;61.70;;;;;;4839134;29;20356;-79
2021/09/05 09:53:59;;;;;;;38.35;20.25;;;25.80;62.50;;;;;;4838801;29;20096;-79
2021/09/05 09:56:26;;;;;;;23.17;13.02;;;26.00;60.80;;;;;;4823561;29;20110;-79
2021/09/05 09:58:57;;;;;;;17.95;12.32;;;26.00;61.70;;;;;;4835724;29;20030;-79
2021/09/05 10:01:25;;;;;;;36.58;22.50;;;26.00;62.70;;;;;;4823517;29;20048;-79
2021/09/05 10:03:53;;;;;;;43.70;31.88;;;26.10;61.60;;;;;;4838586;29;20089;-79
2021/09/05 10:06:23;;;;;;;15.85;11.82;;;26.20;60.10;;;;;;4855308;29;20109;-79
2021/09/05 10:08:54;;;;;;;17.90;11.93;;;26.20;61.70;;;;;;4823791;29;20034;-79
2021/09/05 10:11:20;;;;;;;15.40;11.45;;;26.00;60.50;;;;;;4838364;29;20048;-79
2021/09/05 10:13:48;;;;;;;15.83;11.80;;;25.90;60.50;;;;;;4823230;29;20044;-79
2021/09/05 10:16:14;;;;;;;13.30;10.88;;;25.70;60.50;;;;;;4823533;29;20323;-79
2021/09/05 10:18:45;;;;;;;16.10;11.37;;;25.60;59.80;;;;;;4839192;29;20045;-80
2021/09/05 10:21:13;;;;;;;14.73;10.20;;;25.70;63.10;;;;;;4838475;29;20061;-79
2021/09/05 10:23:49;;;;;;;15.90;11.02;;;25.90;62.50;;;;;;4826078;29;20034;-79
2021/09/05 10:26:16;;;;;;;14.52;10.77;;;26.00;59.00;;;;;;4838042;29;20041;-78
2021/09/05 10:28:47;;;;;;;15.20;10.07;;;26.00;58.60;;;;;;4838612;29;20034;-79
2021/09/05 10:31:29;;;;;;;15.13;11.27;;;26.00;59.70;;;;;;4838438;29;20335;-78
2021/09/05 10:33:56;;;;;;;16.23;10.55;;;25.90;59.80;;;;;;4834766;29;20045;-79
2021/09/05 10:36:24;;;;;;;15.95;10.38;;;25.80;61.40;;;;;;4820128;29;20101;-78
2021/09/05 10:38:52;;;;;;;11.50;10.05;;;25.90;59.60;;;;;;4820567;29;20447;-79
2021/09/05 10:41:20;;;;;;;14.27;10.80;;;26.00;60.60;;;;;;4805183;29;20066;-78
2021/09/05 10:43:50;;;;;;;16.75;10.88;;;26.20;60.20;;;;;;4852601;29;20030;-78
2021/09/05 10:46:27;;;;;;;15.10;10.98;;;26.50;58.40;;;;;;4826086;29;20057;-79
2021/09/05 10:48:57;;;;;;;17.80;11.50;;;26.60;58.90;;;;;;4857403;29;20026;-78
2021/09/05 10:51:31;;;;;;;20.52;11.10;;;26.60;57.20;;;;;;4863488;29;20100;-78
2021/09/05 10:54:12;;;;;;;17.35;10.80;;;26.70;58.00;;;;;;4872063;29;20037;-78
2021/09/05 10:56:45;;;;;;;14.77;10.98;;;26.80;56.90;;;;;;4841848;29;20368;-78
2021/09/05 10:59:24;;;;;;;16.65;10.40;;;26.80;58.00;;;;;;4834570;29;20045;-79
2021/09/05 11:01:50;;;;;;;16.27;10.23;;;26.80;55.30;;;;;;4834943;29;20066;-79
2021/09/05 11:04:24;;;;;;;15.50;10.68;;;26.90;57.60;;;;;;4834830;29;20026;-78
2021/09/05 11:07:01;;;;;;;15.82;9.80;;;26.90;54.00;;;;;;4834856;29;20106;-79
2021/09/05 11:09:27;;;;;;;13.82;10.02;;;26.90;58.40;;;;;;4819770;29;20037;-78
2021/09/05 11:12:04;;;;;;;13.87;9.83;;;27.00;55.70;;;;;;4834928;29;20042;-78
2021/09/05 11:17:29;;;;;;;13.95;10.25;;;26.90;56.30;;;;;;4782607;30;20122;-79
2021/09/05 11:20:02;;;;;;;14.07;10.57;;;26.90;56.20;;;;;;4782632;30;20114;-79
2021/09/05 11:22:38;;;;;;;13.88;10.05;;;27.00;57.80;;;;;;4767946;30;20039;-79
2021/09/05 11:25:13;;;;;;;18.10;10.32;;;27.20;55.90;;;;;;4767702;30;20264;-79
2021/09/05 11:27:49;;;;;;;15.63;10.70;;;27.20;58.20;;;;;;4767704;30;20087;-79
2021/09/05 11:30:15;;;;;;;;;;;27.30;56.40;;;;;;4768181;30;20038;-79
2021/09/05 11:32:45;;;;;;;18.95;11.02;;;27.40;55.60;;;;;;4782788;30;19981;-79
2021/09/05 11:35:12;;;;;;;13.65;9.68;;;27.50;53.60;;;;;;4782245;30;20054;-80
2021/09/05 11:37:42;;;;;;;15.13;10.43;;;27.40;55.60;;;;;;4767524;30;20039;-80
2021/09/05 11:40:14;;;;;;;14.85;10.25;;;27.60;55.20;;;;;;4782414;30;20323;-80
2021/09/05 11:42:52;;;;;;;15.73;10.30;;;27.70;54.90;;;;;;4767374;30;20062;-80
2021/09/05 11:45:22;;;;;;;13.85;10.60;;;27.90;55.10;;;;;;4782116;30;20044;-80
2021/09/05 11:48:00;;;;;;;16.77;11.48;;;27.90;53.40;;;;;;4778518;30;20085;-79
2021/09/05 11:50:28;;;;;;;13.80;9.95;;;28.00;54.80;;;;;;4803459;29;20039;-79
2021/09/05 11:52:56;;;;;;;15.50;10.15;;;28.00;54.90;;;;;;4785100;29;20027;-79
2021/09/05 11:55:24;;;;;;;17.08;9.40;;;28.20;55.40;;;;;;4836892;29;20202;-79
2021/09/05 11:58:02;;;;;;;14.43;10.60;;;28.50;54.50;;;;;;4799741;29;20062;-79
2021/09/05 12:00:37;;;;;;;12.50;9.98;;;28.50;52.20;;;;;;4800038;29;20042;-79
2021/09/05 12:03:06;;;;;;;16.15;9.88;;;28.50;53.40;;;;;;4799740;29;20046;-80
2021/09/05 12:05:34;;;;;;;15.45;10.43;;;28.50;53.00;;;;;;4785199;29;20264;-80
2021/09/05 12:08:03;;;;;;;13.95;10.60;;;28.60;53.20;;;;;;4800175;29;20309;-79
2021/09/05 12:10:31;;;;;;;15.18;10.48;;;28.70;54.00;;;;;;4800086;29;20057;-79
2021/09/05 12:13:01;;;;;;;17.80;10.15;;;28.80;54.70;;;;;;4785055;29;20300;-79
2021/09/05 12:15:32;;;;;;;16.38;10.23;;;28.90;52.70;;;;;;4784980;29;20041;-79
2021/09/05 12:17:59;;;;;;;15.23;9.82;;;28.90;52.20;;;;;;4784752;29;20054;-79
2021/09/05 12:20:37;;;;;;;;;;;28.80;53.30;;;;;;4815002;29;20038;-79
2021/09/05 12:23:03;;;;;;;13.35;9.98;;;28.80;50.90;;;;;;4815099;29;19909;-79
2021/09/05 12:25:34;;;;;;;19.40;9.90;;;28.60;49.10;;;;;;4799601;29;20130;-79
2021/09/05 12:28:04;;;;;;;16.92;10.45;;;28.50;51.00;;;;;;4821217;29;20034;-79
2021/09/05 12:30:33;;;;;;;12.23;9.73;;;28.50;49.90;;;;;;4821250;29;20041;-79
2021/09/05 12:33:15;;;;;;;14.13;9.82;;;28.20;50.10;;;;;;4836437;29;20251;-79
2021/09/05 12:35:44;;;;;;;15.57;11.30;;;27.80;52.30;;;;;;4852624;29;20029;-79
2021/09/05 12:38:32;;;;;;;15.80;9.70;;;27.60;52.20;;;;;;4821163;29;20298;-78
2021/09/05 12:41:10;;;;;;;14.13;9.73;;;27.40;51.80;;;;;;4836550;29;20033;-78
2021/09/05 12:43:42;;;;;;;16.45;10.23;;;27.30;52.80;;;;;;4836435;29;20030;-78
2021/09/05 12:46:10;;;;;;;13.27;9.48;;;27.20;53.20;;;;;;4839290;29;20042;-78
2021/09/05 12:48:38;;;;;;;15.00;10.13;;;27.20;53.70;;;;;;4851833;29;20321;-78
2021/09/05 12:51:07;;;;;;;14.63;9.52;;;27.20;54.20;;;;;;4851713;29;20298;-79
2021/09/05 12:53:35;;;;;;;17.40;10.88;;;27.10;52.60;;;;;;4852877;29;20086;-79
2021/09/05 12:56:04;;;;;;;13.20;9.35;;;27.10;52.50;;;;;;4837469;29;20206;-79
2021/09/05 12:58:31;;;;;;;15.82;9.15;;;27.30;51.20;;;;;;4851790;29;20187;-79
2021/09/05 13:00:57;;;;;;;12.65;9.45;;;27.60;52.70;;;;;;4839782;29;20053;-79
2021/09/05 13:03:23;;;;;;;11.23;8.85;;;28.00;52.80;;;;;;4840086;29;20229;-79
2021/09/05 13:05:50;;;;;;;14.38;9.68;;;28.00;50.80;;;;;;4855207;29;20030;-79
2021/09/05 13:08:17;;;;;;;10.47;8.80;;;27.80;50.00;;;;;;4839677;29;20026;-79
2021/09/05 13:10:42;;;;;;;12.02;9.57;;;27.50;50.50;;;;;;4856280;29;20109;-79
2021/09/05 13:13:08;;;;;;;14.07;9.90;;;27.20;51.20;;;;;;4840154;29;20022;-79
2021/09/05 13:15:37;;;;;;;10.63;8.60;;;27.10;51.60;;;;;;4856391;29;20033;-79
2021/09/05 13:18:03;;;;;;;12.32;10.20;;;27.10;52.00;;;;;;4839718;29;20100;-79
2021/09/05 13:20:30;;;;;;;13.80;9.88;;;27.10;51.00;;;;;;4856076;29;20049;-79
2021/09/05 13:22:57;;;;;;;13.27;9.65;;;27.10;55.40;;;;;;4856298;29;20037;-79
2021/09/05 13:25:23;;;;;;;12.07;8.85;;;27.10;54.30;;;;;;4840185;29;20034;-79
2021/09/05 13:27:49;;;;;;;17.43;8.97;;;27.00;52.40;;;;;;4856377;29;20022;-79
2021/09/05 13:30:16;;;;;;;14.07;8.75;;;27.00;54.10;;;;;;4839308;29;20046;-79
2021/09/05 13:32:43;;;;;;;10.13;8.40;;;27.10;53.30;;;;;;4855029;29;20040;-79
2021/09/05 13:35:10;;;;;;;14.00;8.88;;;27.20;52.60;;;;;;4854746;29;20053;-79
2021/09/05 13:37:36;;;;;;;12.23;8.43;;;27.40;51.80;;;;;;4854847;29;20321;-79
2021/09/05 13:40:04;;;;;;;11.18;8.48;;;27.80;51.80;;;;;;4854600;29;20034;-80
2021/09/05 13:42:30;;;;;;;12.25;9.40;;;28.10;50.10;;;;;;4854819;29;20026;-79
2021/09/05 13:44:57;;;;;;;11.70;9.07;;;28.30;49.50;;;;;;4839586;29;20030;-79
2021/09/05 13:47:25;;;;;;;13.65;9.10;;;28.50;49.70;;;;;;4854550;29;20042;-79
2021/09/05 13:49:55;;;;;;;11.90;9.38;;;28.70;49.00;;;;;;4839575;29;20037;-79
2021/09/05 13:52:24;;;;;;;11.70;8.88;;;28.80;48.70;;;;;;4839202;29;20025;-79
2021/09/05 13:54:50;;;;;;;14.10;9.02;;;28.80;46.60;;;;;;4854780;29;20078;-79
2021/09/05 13:57:16;;;;;;;13.13;8.97;;;28.80;46.70;;;;;;4854809;29;20026;-79
2021/09/05 13:59:42;;;;;;;12.80;9.00;;;28.80;48.00;;;;;;4839424;29;20052;-79
2021/09/05 14:02:09;;;;;;;10.00;8.32;;;28.80;47.30;;;;;;4839229;29;20040;-79
2021/09/05 14:04:36;;;;;;;13.60;8.75;;;28.70;46.90;;;;;;4839047;29;20065;-79
2021/09/05 14:07:03;;;;;;;;;;;28.70;47.00;;;;;;4854935;29;20097;-79
2021/09/05 14:09:29;;;;;;;16.87;9.10;;;28.50;46.60;;;;;;4869464;29;19946;-79
2021/09/05 14:11:54;;;;;;;10.20;8.15;;;28.30;47.80;;;;;;4854784;29;20034;-79
2021/09/05 14:14:21;;;;;;;13.20;8.45;;;28.20;48.20;;;;;;4854278;29;20040;-79
2021/09/05 14:16:47;;;;;;;10.93;8.18;;;28.20;47.50;;;;;;4855290;29;20033;-79
2021/09/05 14:19:13;;;;;;;10.13;7.50;;;28.30;47.70;;;;;;4839011;29;20037;-80
2021/09/05 14:21:41;;;;;;;11.68;8.23;;;28.30;46.90;;;;;;4854101;29;20038;-79
2021/09/05 14:24:09;;;;;;;12.43;8.25;;;28.20;47.80;;;;;;4854184;29;20026;-79
2021/09/05 14:26:36;;;;;;;15.98;8.75;;;28.00;46.50;;;;;;4838765;29;20155;-79
2021/09/05 14:29:09;;;;;;;10.90;8.63;;;27.90;46.90;;;;;;4853911;29;20030;-79
2021/09/05 14:48:05;;;;;;;9.70;7.72;;;28.10;46.50;;;;;;4854403;29;20041;-79
2021/09/05 14:55:54;;;;;;;14.52;8.63;;;28.20;45.20;;;;;;4853515;29;20054;-79
2021/09/05 14:58:23;;;;;;;10.43;8.13;;;28.20;44.40;;;;;;4853732;29;20022;-79
2021/09/05 15:00:58;;;;;;;13.55;9.35;;;28.20;45.00;;;;;;4853253;29;20088;-79
2021/09/05 15:11:10;;;;;;;10.02;8.20;;;28.50;45.00;;;;;;4854347;29;20030;-79
2021/09/05 15:13:36;;;;;;;18.60;8.25;;;28.50;46.20;;;;;;4853291;29;20370;-79
2021/09/05 15:16:03;;;;;;;12.47;8.47;;;28.50;45.90;;;;;;4853230;29;20040;-79
2021/09/05 15:18:31;;;;;;;12.73;7.93;;;28.50;44.50;;;;;;4853029;29;20030;-79
2021/09/05 15:20:58;;;;;;;12.20;7.75;;;28.30;44.40;;;;;;4853532;29;20254;-80
2021/09/05 15:23:26;;;;;;;11.98;8.18;;;28.20;44.70;;;;;;4852293;29;20074;-79
2021/09/05 15:25:52;;;;;;;11.90;8.23;;;28.10;45.50;;;;;;4854322;29;20054;-79
2021/09/05 15:28:27;;;;;;;9.18;7.47;;;28.00;45.60;;;;;;4852840;29;20033;-79
2021/09/05 15:33:59;;;;;;;12.95;9.20;;;28.00;45.80;;;;;;4852800;29;20034;-79
2021/09/05 15:50:42;;;;;;;16.27;8.85;;;26.90;49.20;;;;;;4779941;30;20031;-79
2021/09/05 15:55:42;;;;;;;13.25;9.77;;;26.50;51.60;;;;;;4779456;30;20364;-80
2021/09/05 15:58:13;;;;;;;19.27;10.65;;;26.40;52.70;;;;;;4764529;30;20112;-79
2021/09/05 16:00:46;;;;;;;12.27;9.50;;;26.30;52.80;;;;;;4779404;30;20036;-79
2021/09/05 16:06:14;;;;;;;16.67;9.63;;;26.10;53.20;;;;;;4779256;30;20074;-79
2021/09/05 16:16:42;;;;;;;14.60;11.13;;;25.50;54.50;;;;;;4790134;29;20068;-79
2021/09/05 16:19:09;;;;;;;14.77;10.07;;;25.40;55.10;;;;;;4836738;29;20059;-79
2021/09/05 16:21:35;;;;;;;15.02;9.88;;;25.30;55.40;;;;;;4836790;29;20034;-79
2021/09/05 16:24:01;;;;;;;13.52;10.15;;;25.20;57.90;;;;;;4836795;29;20041;-79
2021/09/05 16:26:27;;;;;;;14.48;10.50;;;25.10;56.70;;;;;;4836696;29;20029;-79
2021/09/05 16:28:56;;;;;;;14.07;9.98;;;25.00;56.90;;;;;;4836700;29;20337;-79
2021/09/05 16:31:23;;;;;;;16.25;10.00;;;25.00;56.00;;;;;;4836974;29;20452;-79